Weather observations for the past three days for
Alice, Alice International Airport
Metric (Imperial)
Date Time (cdt) Wind (kph) Vis. (km) Weather Sky Cond. Temperature (ºC) Relative Humidity Wind Chill (°C) Heat Index (°C) Pressure Precipitation (cm)
Air Dwpt 6 hour altimeter (cm) sea level (mb) 1 hr 3 hr 6 hr
Max. Min.
03 23:53 SE 15 16.09 Fair CLR 28.3 24.4 79% 33 75.92 1011.7
03 22:53 SE 17 16.09 Fair CLR 28.9 25 80% 34 75.92 1011.7
03 21:53 SE 20 16.09 Fair CLR 28.9 24.4 77% 34 75.9 1011.4
03 20:53 SE 30 G 43 16.09 Fair CLR 29.4 24.4 75% 35 75.82 1010.5
03 19:53 SE 35 G 46 16.09 Fair and Breezy CLR 30 23.9 70% 35 75.79 1010.1
03 17:53 SE 31 G 50 16.09 Fair CLR 35 23.9 53% 42 75.69 1008.9
03 16:53 SE 30 G 43 16.09 A Few Clouds FEW055 37.8 23.3 43% 45 75.67 1008.2
03 15:53 SE 24 G 37 16.09 Partly Cloudy FEW070 SCT095 38.9 22.8 40% 45 75.67 1008.3
03 14:53 S 11 16.09 A Few Clouds FEW070 38.9 20.6 35% 43 75.72 1008.9
03 13:53 Vrbl 7 16.09 A Few Clouds FEW060 37.8 20.6 37% 42 75.79 1009.9
03 12:53 SE 9 G 28 16.09 Fair CLR 36.7 22.2 37.2 25 43% 42 75.84 1010.9
03 11:53 S 24 G 31 16.09 Fair CLR 36.1 22.8 46% 42 75.92 1011.7
03 10:53 S 26 G 44 16.09 Fair CLR 33.9 22.8 52% 39 75.92 1011.9
03 09:53 S 26 G 35 16.09 Fair CLR 31.7 23.9 63% 37 75.95 1012.3
03 08:53 S 19 16.09 Fair CLR 28.9 25.6 82% 35 75.97 1012.6
03 07:53 SE 9 12.87 Fair CLR 26.1 25 94% 28 75.97 1012.5
03 06:53 SE 7 16.09 Fair CLR 25.6 24.4 28.3 25.6 93% 27 75.95 1012.1
03 05:53 S 11 16.09 Fair CLR 26.1 25 94% 28 75.95 1012.1
03 04:53 S 11 16.09 Fair CLR 26.1 25 94% 28 75.95 1012.1
03 03:53 S 9 16.09 Fair CLR 26.7 25 90% 30 75.95 1012.3
03 02:53 S 9 16.09 A Few Clouds FEW021 27.2 25 88% 31 75.97 1012.5
03 01:53 S 17 16.09 A Few Clouds FEW020 27.8 25 85% 32 75.97 1012.3
03 00:53 S 17 16.09 Partly Cloudy SCT019 28.3 25 33.3 28.3 82% 33 76 1012.7
02 23:53 S 22 16.09 Fair CLR 28.3 25 82% 33 75.97 1012.4
02 22:53 S 24 16.09 Fair CLR 28.9 25.6 82% 35 75.97 1012.3
02 21:53 SE 28 G 41 16.09 Fair CLR 28.9 25.6 82% 35 75.92 1011.8
02 20:53 SE 26 16.09 Fair CLR 29.4 25 77% 35 75.84 1010.9
02 19:53 SE 24 G 39 16.09 Fair CLR 31.1 24.4 68% 37 75.82 1010.4
02 18:53 SE 28 G 50 16.09 Fair CLR 33.3 23.9 40.6 33.3 58% 39 75.79 1010.2
02 17:53 SE 31 G 43 16.09 Fair CLR 36.1 23.9 49% 43 75.77 1009.8
02 16:53 SE 28 G 44 16.09 Mostly Cloudy BKN090 BKN110 38.9 22.8 40% 45 75.74 1009.4
02 15:53 S 19 G 28 16.09 Mostly Cloudy BKN090 39.4 18.9 30% 42 75.77 1009.8
02 14:53 SE 9 16.09 Fair CLR 39.4 18.3 29% 42 75.84 1010.8
02 13:53 E 15 16.09 Fair CLR 38.3 20 34% 42 75.92 1011.8
02 12:53 Vrbl 11 16.09 Fair CLR 36.7 21.7 37.2 23.3 42% 41 76.02 1013.0
02 11:53 SW 17 G 30 16.09 Fair CLR 35 22.8 49% 40 76.1 1014.0
02 10:53 S 26 16.09 Fair CLR 33.9 23.3 54% 40 76.12 1014.4
02 09:53 SW 24 16.09 Fair CLR 31.1 24.4 68% 37 76.12 1014.4
02 08:53 S 11 16.09 Fair CLR 27.2 25 88% 31 76.12 1014.5
02 07:53 E 6 6.44 Fog/Mist CLR 23.9 23.9 100% 22 76.1 1014.1
02 06:53 SE 7 9.66 Fog/Mist CLR 23.9 23.9 26.1 23.9 100% 22 76.05 1013.7
02 05:53 S 9 14.48 Fair CLR 25 23.9 94% 26 76.05 1013.6
02 04:53 S 9 14.48 Fair CLR 24.4 23.9 97% 24 76.02 1013.2
02 03:53 S 7 16.09 Fair CLR 24.4 23.9 97% 24 76.05 1013.5
02 02:53 S 11 16.09 Fair CLR 25 23.9 94% 26 76.07 1013.9
02 01:53 S 9 16.09 Fair CLR 25.6 23.9 90% 27 76.1 1014.1
02 00:53 SE 9 16.09 Fair CLR 26.1 24.4 33.9 26.1 90% 28 76.1 1014.2
01 23:53 S 11 16.09 Fair CLR 27.2 24.4 85% 31 76.07 1013.9
01 22:53 SE 15 16.09 Fair CLR 27.8 24.4 82% 32 76.07 1013.9
01 21:53 SE 15 16.09 Fair CLR 28.3 23.9 77% 32 76.02 1013.2
01 20:53 SE 22 G 33 16.09 Fair CLR 28.9 23.9 74% 33 75.95 1012.2
01 19:53 SE 24 G 35 16.09 Fair CLR 30.6 23.3 65% 35 75.9 1011.7
01 18:53 SE 22 G 41 16.09 Fair CLR 33.9 21.7 39.4 33.9 49% 38 75.9 1011.4
01 17:53 SE 26 G 48 16.09 Fair CLR 36.1 21.7 43% 41 75.84 1010.9
01 16:53 E 13 G 28 16.09 A Few Clouds FEW080 38.9 19.4 32% 42 75.82 1010.5
01 14:53 SE 13 G 30 16.09 Fair CLR 37.2 17.8 32% 39 75.95 1012.1
01 13:53 S 11 16.09 Fair CLR 37.2 17.2 31% 38 76.02 1013.0
01 12:53 SE 13 14.48 Fair CLR 36.7 19.4 36.7 23.3 36% 39 76.07 1013.9
01 11:53 Vrbl 7 16.09 Fair CLR 34.4 19.4 41% 36 76.15 1014.8
01 10:53 S 15 16.09 Fair CLR 32.2 22.2 56% 36 76.15 1014.8
01 09:53 S 15 16.09 Fair CLR 30.6 23.3 65% 35 76.15 1014.9
01 08:53 S 9 16.09 Fair CLR 27.8 24.4 82% 32 76.17 1015.1
01 07:53 Calm 6.44 Fog/Mist CLR 23.9 23.3 96% 23 76.12 1014.5
01 06:53 S 7 8.05 Fog/Mist CLR 23.3 23.3 27.2 23.3 100% 76.07 1013.9
01 05:53 SE 7 9.66 Fog/Mist CLR 23.9 23.9 100% 22 76.07 1013.8
01 04:53 SE 6 12.87 Fair CLR 24.4 23.9 97% 24 76.07 1013.9
01 03:53 SE 6 12.87 Fair CLR 23.9 23.9 100% 22 76.1 1014.0
01 02:53 SE 6 16.09 A Few Clouds FEW020 25.6 24.4 93% 27 76.1 1014.1
01 01:53 SE 7 16.09 Fair CLR 26.1 24.4 90% 28 76.12 1014.3
01 00:53 S 11 16.09 Fair CLR 27.2 25 33.9 27.2 88% 31 76.12 1014.4
Date Time (cdt) Wind (kph) Vis. (km) Weather Sky Cond. Air Dwpt Max. Min. Relative Humidity Wind Chill (°C) Heat Index (°C) altimeter (cm) sea level (mb) 1 hr 3 hr 6 hr
6 hour
Temperature (ºC) Pressure Precipitation (cm)